createdAt,value
2022-12-25T00:02:21.353Z,2.50
2022-12-25T00:04:48.165Z,3.33
2022-12-25T00:07:14.908Z,2.93
2022-12-25T00:09:41.693Z,2.40
2022-12-25T00:12:08.536Z,3.13
2022-12-25T00:14:35.295Z,2.50
2022-12-25T00:17:02.123Z,2.40
2022-12-25T00:19:28.974Z,3.40
2022-12-25T00:21:55.665Z,2.87
2022-12-25T00:24:22.656Z,2.80
2022-12-25T00:26:49.404Z,3.13
2022-12-25T00:29:16.142Z,2.80
2022-12-25T00:31:43.065Z,2.70
2022-12-25T00:34:10.019Z,2.70
2022-12-25T00:36:41.638Z,2.87
2022-12-25T00:39:09.132Z,2.80
2022-12-25T00:41:56.635Z,2.83
2022-12-25T00:44:23.354Z,2.73
2022-12-25T00:46:50.132Z,2.73
2022-12-25T00:49:17.026Z,3.13
2022-12-25T00:51:43.923Z,2.87
2022-12-25T00:54:10.680Z,3.27
2022-12-25T00:56:37.494Z,2.80
2022-12-25T00:59:04.327Z,2.47
2022-12-25T01:01:31.379Z,2.90
2022-12-25T01:03:58.655Z,2.53
2022-12-25T01:06:26.067Z,3.70
2022-12-25T01:09:11.446Z,3.20
2022-12-25T01:11:38.174Z,2.80
2022-12-25T01:14:04.915Z,3.03
2022-12-25T01:16:31.843Z,2.83
2022-12-25T01:18:59.100Z,2.70
2022-12-25T01:21:26.173Z,2.93
2022-12-25T01:23:53.758Z,3.40
2022-12-25T01:26:23.999Z,2.37
2022-12-25T01:28:51.511Z,2.07
2022-12-25T01:31:20.733Z,2.47
2022-12-25T01:33:47.774Z,3.10
2022-12-25T01:36:25.226Z,2.20
2022-12-25T01:38:53.710Z,2.17
2022-12-25T01:41:22.674Z,2.70
2022-12-25T01:44:15.735Z,2.73
2022-12-25T01:46:43.640Z,2.47
2022-12-25T01:49:16.892Z,2.47
2022-12-25T01:51:52.570Z,2.20
2022-12-25T01:54:27.931Z,2.60
2022-12-25T01:56:58.767Z,2.50
2022-12-25T01:59:27.189Z,2.43
2022-12-25T02:01:54.264Z,2.27
2022-12-25T02:04:24.132Z,2.80
2022-12-25T02:06:52.145Z,2.70
2022-12-25T02:09:20.415Z,2.40
2022-12-25T02:11:59.292Z,2.50
2022-12-25T02:14:32.580Z,2.87
2022-12-25T02:17:05.777Z,2.40
2022-12-25T02:20:12.428Z,3.10
2022-12-25T02:23:10.850Z,2.50
2022-12-25T02:25:48.183Z,2.83
2022-12-25T02:28:36.176Z,2.53
2022-12-25T02:31:13.603Z,2.40
2022-12-25T02:34:03.001Z,2.23
2022-12-25T02:36:38.887Z,2.37
2022-12-25T02:39:37.786Z,2.67
2022-12-25T02:42:09.740Z,2.40
2022-12-25T02:44:59.581Z,2.33
2022-12-25T02:47:45.598Z,2.37
2022-12-25T02:50:50.454Z,2.70
2022-12-25T02:53:37.029Z,2.63
2022-12-25T02:56:22.450Z,2.43
2022-12-25T02:59:08.198Z,2.63
2022-12-25T03:01:55.896Z,3.23
2022-12-25T03:04:43.629Z,3.23
2022-12-25T03:07:17.069Z,2.70
2022-12-25T03:10:08.295Z,2.10
2022-12-25T03:12:50.240Z,2.37
2022-12-25T03:15:38.011Z,2.40
2022-12-25T03:18:08.497Z,3.13
2022-12-25T03:20:55.071Z,2.37
2022-12-25T03:23:46.572Z,2.53
2022-12-25T03:26:31.700Z,2.20
2022-12-25T03:28:58.493Z,2.33
2022-12-25T03:31:51.585Z,2.60
2022-12-25T03:35:02.159Z,2.37
2022-12-25T03:37:47.993Z,2.30
2022-12-25T03:40:50.290Z,2.70
2022-12-25T03:44:01.689Z,1.93
2022-12-25T03:46:53.645Z,2.43
2022-12-25T03:49:51.131Z,2.30
2022-12-25T03:52:37.894Z,2.20
2022-12-25T03:55:28.411Z,2.80
2022-12-25T03:58:14.256Z,2.87
2022-12-25T04:00:59.628Z,3.20
2022-12-25T04:03:44.770Z,2.57
2022-12-25T04:06:30.239Z,2.67
2022-12-25T04:09:15.765Z,3.23
2022-12-25T04:12:03.011Z,2.80
2022-12-25T04:14:49.130Z,3.20
2022-12-25T04:17:34.356Z,2.80
2022-12-25T04:20:19.584Z,2.47
2022-12-25T04:23:05.447Z,2.97
2022-12-25T04:25:50.766Z,3.00
2022-12-25T04:28:36.471Z,2.60
2022-12-25T04:31:21.917Z,2.97
2022-12-25T04:34:07.598Z,2.83
2022-12-25T04:36:34.334Z,3.43
2022-12-25T04:39:01.067Z,3.20
2022-12-25T04:41:27.856Z,2.53
2022-12-25T04:43:54.602Z,2.93
2022-12-25T04:46:21.414Z,3.10
2022-12-25T04:48:48.235Z,2.17
2022-12-25T04:51:18.641Z,3.00
2022-12-25T04:53:46.585Z,3.03
2022-12-25T04:56:14.066Z,2.80
2022-12-25T04:58:41.471Z,3.17
2022-12-25T05:01:08.818Z,2.60
2022-12-25T05:03:36.159Z,2.67
2022-12-25T05:06:04.588Z,3.00
2022-12-25T05:08:32.906Z,3.27
2022-12-25T05:11:00.266Z,3.20
2022-12-25T05:13:27.017Z,3.30
2022-12-25T05:15:53.843Z,2.77
2022-12-25T05:18:20.617Z,1.87
2022-12-25T05:20:54.521Z,3.27
2022-12-25T05:23:22.368Z,2.63
2022-12-25T05:25:49.142Z,3.30
2022-12-25T05:28:16.104Z,3.17
2022-12-25T05:30:43.131Z,2.80
2022-12-25T05:33:09.984Z,2.70
2022-12-25T05:35:38.163Z,2.93
2022-12-25T05:38:06.080Z,3.37
2022-12-25T05:40:33.565Z,3.00
2022-12-25T05:43:00.664Z,2.90
2022-12-25T05:45:27.434Z,2.50
2022-12-25T05:47:54.135Z,2.93
2022-12-25T05:50:20.928Z,3.13
2022-12-25T05:52:47.759Z,3.57
2022-12-25T05:55:14.561Z,3.30
2022-12-25T05:57:41.324Z,2.97
2022-12-25T06:00:08.677Z,3.57
2022-12-25T06:02:36.184Z,3.13
2022-12-25T06:05:04.274Z,3.10
2022-12-25T06:07:31.177Z,2.73
2022-12-25T06:09:57.914Z,2.40
2022-12-25T06:12:24.726Z,3.00
2022-12-25T06:14:51.442Z,2.57
2022-12-25T06:17:18.243Z,3.67
2022-12-25T06:19:45.061Z,2.63
2022-12-25T06:22:14.692Z,3.20
2022-12-25T06:24:41.587Z,2.73
2022-12-25T06:27:08.378Z,2.53
2022-12-25T06:29:35.195Z,3.13
2022-12-25T06:32:01.986Z,3.53
2022-12-25T06:34:28.874Z,3.27
2022-12-25T06:36:55.655Z,2.80
2022-12-25T06:39:22.603Z,3.17
2022-12-25T06:41:49.315Z,2.90
2022-12-25T06:44:16.108Z,2.93
2022-12-25T06:46:42.909Z,3.70
2022-12-25T06:49:10.544Z,3.00
2022-12-25T06:51:38.171Z,3.60
2022-12-25T06:54:05.994Z,3.30
2022-12-25T06:56:33.956Z,3.23
2022-12-25T06:59:03.946Z,3.47
2022-12-25T07:01:35.487Z,3.10
2022-12-25T07:04:11.632Z,3.37
2022-12-25T07:06:38.488Z,2.77
2022-12-25T07:09:07.180Z,2.67
2022-12-25T07:11:34.008Z,3.63
2022-12-25T07:14:00.816Z,3.60
2022-12-25T07:16:27.688Z,3.40
2022-12-25T07:18:54.554Z,3.00
2022-12-25T07:21:21.844Z,3.10
2022-12-25T07:23:50.138Z,3.37
2022-12-25T07:26:17.590Z,3.57
2022-12-25T07:28:44.773Z,3.03
2022-12-25T07:31:14.460Z,3.33
2022-12-25T07:33:41.959Z,3.07
2022-12-25T07:36:12.687Z,3.10
2022-12-25T07:38:43.682Z,3.20
2022-12-25T07:41:12.847Z,3.03
2022-12-25T07:43:41.844Z,4.07
2022-12-25T07:46:11.099Z,2.77
2022-12-25T07:48:38.213Z,3.10
2022-12-25T07:51:12.089Z,3.93
2022-12-25T07:53:39.775Z,2.77
2022-12-25T07:56:16.249Z,3.70
2022-12-25T07:58:44.130Z,3.20
2022-12-25T08:01:21.196Z,3.37
2022-12-25T08:03:52.538Z,3.30
2022-12-25T08:06:20.572Z,3.33
2022-12-25T08:08:47.735Z,3.37
2022-12-25T08:11:14.676Z,3.73
2022-12-25T08:13:41.483Z,3.90
2022-12-25T08:16:10.726Z,3.93
2022-12-25T08:18:39.787Z,3.50
2022-12-25T08:21:12.934Z,2.73
2022-12-25T08:23:42.891Z,3.00
2022-12-25T08:26:14.044Z,3.00
2022-12-25T08:28:41.442Z,2.70
2022-12-25T08:31:37.231Z,3.53
2022-12-25T08:34:07.056Z,3.47
2022-12-25T08:36:34.479Z,3.33
2022-12-25T08:39:03.210Z,3.60
2022-12-25T08:41:31.049Z,3.00
2022-12-25T08:43:58.470Z,3.10
2022-12-25T08:46:25.379Z,3.43
2022-12-25T08:48:52.317Z,3.30
2022-12-25T08:51:21.738Z,3.83
2022-12-25T08:53:50.270Z,3.37
2022-12-25T08:56:19.072Z,3.37
2022-12-25T08:58:46.626Z,3.87
2022-12-25T09:01:13.851Z,4.67
2022-12-25T09:03:41.366Z,3.50
2022-12-25T09:06:12.164Z,3.60
2022-12-25T09:08:44.203Z,3.67
2022-12-25T09:11:15.992Z,3.70
2022-12-25T09:13:42.791Z,3.50
2022-12-25T09:16:13.146Z,3.73
2022-12-25T09:18:40.480Z,3.73
2022-12-25T09:21:10.420Z,3.90
2022-12-25T09:23:37.565Z,4.40
2022-12-25T09:26:06.353Z,4.33
2022-12-25T09:28:33.827Z,3.47
2022-12-25T09:31:00.772Z,4.40
2022-12-25T09:33:27.667Z,4.00
2022-12-25T09:36:03.230Z,4.10
2022-12-25T09:38:31.407Z,3.97
2022-12-25T09:41:19.989Z,4.97
2022-12-25T09:43:55.096Z,4.67
2022-12-25T09:46:33.048Z,4.30
2022-12-25T09:49:13.464Z,4.90
2022-12-25T09:51:42.853Z,4.07
2022-12-25T09:54:33.132Z,4.33
2022-12-25T09:57:00.270Z,3.70
2022-12-25T09:59:30.714Z,4.30
2022-12-25T10:02:25.566Z,4.97
2022-12-25T10:05:07.733Z,4.37
2022-12-25T10:07:59.801Z,3.80
2022-12-25T10:10:41.917Z,5.20
2022-12-25T10:13:36.894Z,4.03
2022-12-25T10:16:21.961Z,4.83
2022-12-25T10:19:20.183Z,3.77
2022-12-25T10:21:50.039Z,3.57
2022-12-25T10:24:39.413Z,4.30
2022-12-25T10:27:20.946Z,4.60
2022-12-25T10:29:53.879Z,4.67
2022-12-25T10:32:21.466Z,4.30
2022-12-25T10:34:48.955Z,3.83
2022-12-25T10:37:17.011Z,3.97
2022-12-25T10:39:49.186Z,4.53
2022-12-25T10:42:26.682Z,4.10
2022-12-25T10:45:01.579Z,3.93
2022-12-25T10:47:34.706Z,4.00
2022-12-25T10:50:10.433Z,3.33
2022-12-25T10:53:00.199Z,4.43
2022-12-25T10:55:31.140Z,4.23
2022-12-25T10:57:59.030Z,3.57
2022-12-25T11:00:31.322Z,4.03
2022-12-25T11:02:59.276Z,4.37
2022-12-25T11:05:28.500Z,3.83
2022-12-25T11:07:56.977Z,3.90
2022-12-25T11:10:30.286Z,3.40
2022-12-25T11:12:58.871Z,3.80
2022-12-25T11:15:36.780Z,3.20
2022-12-25T11:18:17.575Z,3.83
2022-12-25T11:21:14.728Z,3.30
2022-12-25T11:23:56.518Z,3.60
2022-12-25T11:26:23.542Z,4.00
2022-12-25T11:28:52.224Z,3.67
2022-12-25T11:31:29.737Z,3.40
2022-12-25T11:33:56.585Z,3.40
2022-12-25T11:36:51.192Z,3.47
2022-12-25T11:39:25.248Z,3.97
2022-12-25T11:41:57.133Z,3.70
2022-12-25T11:44:52.608Z,3.10
2022-12-25T11:47:34.039Z,3.67
2022-12-25T11:50:14.476Z,3.07
2022-12-25T11:52:44.856Z,3.73
2022-12-25T11:55:15.573Z,3.73
2022-12-25T11:57:46.126Z,3.37
2022-12-25T12:00:15.803Z,3.63
2022-12-25T12:03:11.604Z,3.53
2022-12-25T12:05:51.617Z,4.47
2022-12-25T12:08:18.572Z,3.57
2022-12-25T12:10:57.311Z,3.97
2022-12-25T12:13:59.412Z,4.03
2022-12-25T12:16:26.602Z,4.37
2022-12-25T12:18:53.517Z,4.50
2022-12-25T12:21:31.117Z,4.87
2022-12-25T12:24:10.977Z,4.23
2022-12-25T12:26:40.987Z,5.67
2022-12-25T12:29:27.999Z,5.37
2022-12-25T12:32:00.743Z,5.50
2022-12-25T12:34:42.345Z,5.20
2022-12-25T12:37:25.807Z,4.80
2022-12-25T12:39:56.293Z,4.67
2022-12-25T12:42:40.380Z,5.17
2022-12-25T12:45:25.075Z,5.03
2022-12-25T12:47:52.783Z,4.70
2022-12-25T12:50:36.685Z,5.27
2022-12-25T12:53:21.379Z,5.57
2022-12-25T12:55:48.653Z,5.10
2022-12-25T12:58:34.360Z,5.47
2022-12-25T13:01:28.069Z,4.80
2022-12-25T13:04:21.657Z,4.60
2022-12-25T13:07:10.788Z,4.63
2022-12-25T13:10:05.798Z,4.57
2022-12-25T13:12:32.736Z,4.90
2022-12-25T13:15:00.906Z,4.30
2022-12-25T13:17:28.812Z,4.30
2022-12-25T13:19:58.687Z,3.80
2022-12-25T13:22:34.756Z,4.07
2022-12-25T13:25:05.324Z,4.57
2022-12-25T13:27:33.555Z,3.83
2022-12-25T13:30:00.490Z,4.73
2022-12-25T13:32:33.394Z,3.13
2022-12-25T13:35:00.820Z,4.27
2022-12-25T13:37:30.355Z,3.17
2022-12-25T13:40:03.703Z,2.90
2022-12-25T13:42:33.101Z,2.73
2022-12-25T13:45:21.478Z,3.17
2022-12-25T13:47:54.915Z,2.90
2022-12-25T13:50:22.690Z,2.37
2022-12-25T13:52:54.944Z,2.80
2022-12-25T13:55:24.776Z,2.47
2022-12-25T13:57:59.462Z,3.00
2022-12-25T14:00:40.699Z,2.83
2022-12-25T14:03:14.193Z,2.10
2022-12-25T14:05:43.368Z,2.03
2022-12-25T14:08:25.402Z,2.30
2022-12-25T14:10:53.771Z,1.77
2022-12-25T14:13:24.817Z,1.77
2022-12-25T14:15:53.628Z,1.70
2022-12-25T14:18:22.714Z,1.90
2022-12-25T14:21:08.032Z,1.57
2022-12-25T14:23:46.876Z,2.03
2022-12-25T14:26:18.571Z,1.60
2022-12-25T14:29:15.691Z,1.80
2022-12-25T14:31:45.815Z,2.13
2022-12-25T14:34:24.215Z,2.00
2022-12-25T14:36:52.659Z,2.00
2022-12-25T14:39:36.269Z,2.17
2022-12-25T14:42:22.451Z,2.30
2022-12-25T14:45:34.847Z,2.30
2022-12-25T14:48:22.935Z,2.17
2022-12-25T14:51:17.298Z,2.30
2022-12-25T14:54:02.899Z,2.50
2022-12-25T14:56:38.123Z,2.53
2022-12-25T14:59:07.152Z,2.93
2022-12-25T15:01:39.890Z,2.80
2022-12-25T15:04:12.853Z,3.07
2022-12-25T15:06:42.276Z,3.03
2022-12-25T15:09:16.765Z,2.80
2022-12-25T15:11:43.562Z,3.10
2022-12-25T15:14:10.311Z,2.90
2022-12-25T15:16:50.859Z,2.87
2022-12-25T15:19:38.267Z,3.17
2022-12-25T15:22:05.727Z,3.50
2022-12-25T15:24:32.617Z,3.50
2022-12-25T15:27:00.603Z,3.77
2022-12-25T15:30:00.010Z,4.40
2022-12-25T15:32:18.461Z,4.37
2022-12-25T15:34:47.147Z,4.13
2022-12-25T15:37:14.643Z,4.00
2022-12-25T15:39:41.570Z,4.30
2022-12-25T15:42:16.889Z,4.67
2022-12-25T15:44:44.767Z,4.70
2022-12-25T15:47:17.546Z,5.00
2022-12-25T15:49:44.397Z,6.57
2022-12-25T15:52:19.394Z,6.17
2022-12-25T15:54:46.271Z,5.10
2022-12-25T15:57:22.406Z,5.00
2022-12-25T15:59:49.241Z,4.27
2022-12-25T16:02:19.524Z,4.57
2022-12-25T16:04:47.063Z,4.00
2022-12-25T16:07:16.445Z,4.37
2022-12-25T16:09:43.373Z,4.00
2022-12-25T16:12:10.822Z,3.23
2022-12-25T16:14:37.861Z,2.40
2022-12-25T16:17:04.976Z,1.87
2022-12-25T16:19:31.861Z,1.93
2022-12-25T16:21:58.925Z,1.70
2022-12-25T16:24:25.675Z,1.60
2022-12-25T16:26:52.820Z,1.50
2022-12-25T16:29:19.591Z,1.90
2022-12-25T16:31:46.452Z,1.60
2022-12-25T16:34:13.296Z,1.93
2022-12-25T16:36:40.239Z,1.60
2022-12-25T16:39:07.117Z,2.17
2022-12-25T16:41:34.840Z,2.10
2022-12-25T16:44:10.166Z,2.00
2022-12-25T16:46:39.500Z,2.10
2022-12-25T16:49:06.833Z,2.30
2022-12-25T16:51:33.612Z,1.93
2022-12-25T16:54:00.810Z,2.40
2022-12-25T16:56:29.246Z,2.10
2022-12-25T16:58:57.300Z,2.40
2022-12-25T17:01:24.802Z,2.23
2022-12-25T17:03:51.996Z,2.20
2022-12-25T17:06:25.466Z,1.70
2022-12-25T17:08:55.590Z,2.00
2022-12-25T17:11:24.297Z,1.77
2022-12-25T17:13:51.095Z,1.50
2022-12-25T17:16:20.871Z,1.50
2022-12-25T17:18:47.689Z,1.40
2022-12-25T17:21:17.135Z,1.60
2022-12-25T17:23:45.060Z,1.00
2022-12-25T17:26:12.331Z,1.53
2022-12-25T17:28:39.125Z,1.90
2022-12-25T17:31:08.869Z,1.97
2022-12-25T17:33:36.511Z,3.87
2022-12-25T17:36:05.649Z,4.07
2022-12-25T17:38:33.396Z,4.17
2022-12-25T17:41:02.375Z,3.40
2022-12-25T17:43:29.491Z,2.00
2022-12-25T17:45:56.267Z,1.60
2022-12-25T17:48:23.036Z,1.53
2022-12-25T17:50:49.831Z,1.40
2022-12-25T17:53:16.569Z,1.50
2022-12-25T17:55:43.900Z,1.70
2022-12-25T17:58:10.729Z,1.30
2022-12-25T18:00:37.587Z,1.40
2022-12-25T18:03:11.197Z,1.50
2022-12-25T18:05:38.783Z,1.40
2022-12-25T18:08:06.878Z,1.60
2022-12-25T18:10:38.640Z,1.90
2022-12-25T18:13:05.791Z,1.60
2022-12-25T18:15:36.131Z,1.83
2022-12-25T18:18:03.254Z,2.00
2022-12-25T18:20:35.926Z,2.23
2022-12-25T18:23:06.303Z,2.97
2022-12-25T18:25:33.827Z,2.40
2022-12-25T18:28:02.731Z,1.90
2022-12-25T18:30:29.818Z,2.20
2022-12-25T18:32:56.795Z,2.40
2022-12-25T18:35:29.426Z,2.60
2022-12-25T18:37:56.548Z,2.73
2022-12-25T18:40:23.530Z,2.50
2022-12-25T18:42:59.360Z,3.23
2022-12-25T18:45:29.853Z,3.13
2022-12-25T18:47:56.863Z,3.20
2022-12-25T18:50:23.699Z,2.90
2022-12-25T18:52:51.941Z,3.50
2022-12-25T18:55:19.219Z,3.23
2022-12-25T18:57:46.541Z,3.23
2022-12-25T19:00:14.817Z,3.33
2022-12-25T19:02:41.968Z,2.93
2022-12-25T19:05:09.208Z,3.10
2022-12-25T19:07:36.822Z,3.13
2022-12-25T19:10:05.456Z,2.73
2022-12-25T19:12:32.896Z,2.80
2022-12-25T19:14:59.837Z,3.03
2022-12-25T19:17:31.587Z,2.80
2022-12-25T19:19:59.038Z,2.50
2022-12-25T19:22:26.992Z,2.80
2022-12-25T19:24:53.760Z,2.47
2022-12-25T19:27:20.622Z,2.53
2022-12-25T19:29:47.458Z,2.43
2022-12-25T19:32:15.297Z,2.50
2022-12-25T19:34:42.079Z,2.30
2022-12-25T19:37:08.841Z,2.13
2022-12-25T19:39:35.584Z,5.13
2022-12-25T19:42:02.319Z,1.80
2022-12-25T19:44:29.049Z,2.47
2022-12-25T19:46:55.897Z,2.40
2022-12-25T19:49:22.643Z,2.40
2022-12-25T19:51:49.415Z,2.70
2022-12-25T19:54:20.425Z,2.97
2022-12-25T19:56:48.350Z,1.97
2022-12-25T19:59:15.538Z,3.27
2022-12-25T20:01:42.716Z,2.97
2022-12-25T20:04:10.581Z,2.60
2022-12-25T20:06:39.156Z,2.87
2022-12-25T20:09:09.556Z,2.57
2022-12-25T20:11:37.598Z,3.33
2022-12-25T20:14:06.806Z,2.10
2022-12-25T20:16:36.371Z,2.57
2022-12-25T20:19:03.947Z,2.17
2022-12-25T20:21:30.908Z,2.77
2022-12-25T20:23:58.257Z,2.90
2022-12-25T20:26:30.441Z,2.43
2022-12-25T20:28:57.494Z,2.60
2022-12-25T20:31:36.005Z,2.47
2022-12-25T20:34:10.291Z,1.97
2022-12-25T20:36:38.415Z,2.37
2022-12-25T20:39:09.818Z,2.07
2022-12-25T20:41:37.691Z,2.10
2022-12-25T20:44:06.808Z,2.27
2022-12-25T20:46:34.139Z,1.90
2022-12-25T20:49:02.255Z,1.90
2022-12-25T20:51:29.166Z,2.20
2022-12-25T20:53:56.282Z,2.13
2022-12-25T20:56:25.410Z,1.90
2022-12-25T20:58:58.144Z,2.20
2022-12-25T21:01:26.288Z,1.97
2022-12-25T21:03:54.392Z,1.93
2022-12-25T21:06:21.833Z,2.00
2022-12-25T21:08:48.617Z,1.63
2022-12-25T21:11:16.785Z,1.67
2022-12-25T21:13:46.207Z,1.50
2022-12-25T21:16:16.748Z,1.70
2022-12-25T21:18:43.623Z,1.70
2022-12-25T21:21:10.950Z,1.43
2022-12-25T21:23:40.088Z,1.50
2022-12-25T21:26:21.421Z,1.63
2022-12-25T21:28:50.060Z,1.33
2022-12-25T21:31:17.643Z,1.50
2022-12-25T21:33:55.949Z,1.10
2022-12-25T21:36:31.388Z,1.17
2022-12-25T21:39:07.354Z,1.20
2022-12-25T21:41:37.465Z,1.50
2022-12-25T21:44:04.619Z,1.50
2022-12-25T21:46:32.016Z,1.20
2022-12-25T21:48:59.627Z,1.60
2022-12-25T21:51:50.296Z,1.40
2022-12-25T21:54:18.849Z,1.57
2022-12-25T21:56:48.055Z,1.57
2022-12-25T21:59:20.706Z,1.50
2022-12-25T22:01:49.019Z,1.60
2022-12-25T22:04:18.241Z,1.50
2022-12-25T22:07:04.518Z,1.87
2022-12-25T22:09:33.763Z,1.70
2022-12-25T22:12:20.107Z,1.83
2022-12-25T22:15:02.649Z,1.87
2022-12-25T22:17:53.976Z,1.73
2022-12-25T22:20:27.110Z,2.03
2022-12-25T22:22:54.500Z,2.40
2022-12-25T22:25:21.955Z,2.40
2022-12-25T22:27:49.509Z,2.33
2022-12-25T22:30:19.288Z,2.60
2022-12-25T22:32:46.752Z,2.23
2022-12-25T22:35:14.543Z,2.40
2022-12-25T22:37:42.544Z,2.67
2022-12-25T22:40:12.384Z,2.50
2022-12-25T22:42:39.232Z,2.63
2022-12-25T22:45:06.332Z,2.57
2022-12-25T22:47:33.247Z,3.00
2022-12-25T22:50:00.051Z,3.20
2022-12-25T22:52:27.079Z,2.80
2022-12-25T22:54:53.778Z,2.83
2022-12-25T22:57:20.501Z,2.83
2022-12-25T22:59:47.363Z,2.47
2022-12-25T23:02:14.327Z,3.17
2022-12-25T23:04:41.255Z,2.90
2022-12-25T23:07:08.683Z,2.90
2022-12-25T23:09:35.558Z,2.60
2022-12-25T23:12:02.464Z,3.13
2022-12-25T23:14:41.814Z,3.30
2022-12-25T23:17:31.528Z,2.80
2022-12-25T23:20:19.338Z,3.40
2022-12-25T23:23:06.036Z,3.20
2022-12-25T23:25:53.390Z,3.13
2022-12-25T23:28:40.878Z,2.93
2022-12-25T23:31:08.880Z,3.33
2022-12-25T23:33:35.666Z,3.33
2022-12-25T23:36:02.532Z,2.90
2022-12-25T23:38:29.582Z,3.73
2022-12-25T23:40:56.641Z,3.00
2022-12-25T23:43:23.463Z,2.97
2022-12-25T23:45:50.182Z,2.60
2022-12-25T23:48:17.079Z,3.37
2022-12-25T23:50:45.837Z,2.70
2022-12-25T23:53:12.942Z,2.57
2022-12-25T23:55:42.223Z,2.37
2022-12-25T23:58:10.065Z,3.17
